Time;durP1;ratioP1;P1;durP2;ratioP2;P2;SDS_P1;SDS_P2;PMS_P1;PMS_P2;Temp;Humidity;BMP_temperature;BMP_pressure;BME280_temperature;BME280_humidity;BME280_pressure;Samples;Min_cycle;Max_cycle;Signal;HPM_P1;HPM_P2
2021/04/17 00:01:33;;;;;;;;;;;;;;;6.29;70.96;99925.59;5076677;28;20009;-70
2021/04/17 00:04:03;;;;;;;;;;;;;;;6.28;71.23;99916.31;5076578;28;19964;-70
2021/04/17 00:06:31;;;;;;;;;;;;;;;6.28;70.93;99918.84;5076174;28;19956;-70
2021/04/17 00:09:05;;;;;;;;;;;;;;;6.27;71.08;99920.50;5076398;28;19931;-70
2021/04/17 00:11:37;;;;;;;;;;;;;;;6.25;71.17;99922.16;5076511;28;19990;-70
2021/04/17 00:14:05;;;;;;;;;;;;;;;6.23;71.23;99918.75;5075395;28;20336;-70
2021/04/17 00:16:34;;;;;;;;;;;;;;;6.22;71.29;99919.56;5076264;28;20023;-70
2021/04/17 00:19:05;;;;;;;;;;;;;;;6.23;71.51;99918.75;5075633;28;19924;-70
2021/04/17 00:21:33;;;;;;;;;;;;;;;6.24;71.29;99915.38;5075902;28;19931;-70
2021/04/17 00:24:06;;;;;;;;;;;;;;;6.21;71.58;99910.28;5075493;28;19986;-70
2021/04/17 00:26:37;;;;;;;;;;;;;;;6.18;71.44;99910.19;5076138;28;19925;-70
2021/04/17 00:29:06;;;;;;;;;;;;;;;6.17;71.51;99903.41;5075628;28;19924;-70
2021/04/17 00:31:34;;;;;;;;;;;;;;;6.17;71.76;99903.41;5075728;28;19924;-70
2021/04/17 00:34:03;;;;;;;;;;;;;;;6.17;71.79;99905.94;5075648;28;19925;-70
2021/04/17 00:36:31;;;;;;;;;;;;;;;6.19;71.73;99903.47;5075253;28;20388;-70
2021/04/17 00:38:59;;;;;;;;;;;;;;;6.18;71.77;99900.06;5075625;28;19971;-70
2021/04/17 00:41:31;;;;;;;;;;;;;;;6.18;71.84;99889.06;5075698;28;20037;-70
2021/04/17 00:44:03;;;;;;;;;;;;;;;6.18;71.95;99899.19;5075816;28;19928;-70
2021/04/17 00:46:32;;;;;;;;;;;;;;;6.16;71.95;99896.66;5075073;28;20027;-70
2021/04/17 00:49:03;;;;;;;;;;;;;;;6.16;72.09;99890.72;5074957;28;19935;-70
2021/04/17 00:51:31;;;;;;;;;;;;;;;6.14;71.92;99890.69;5074613;28;20281;-70
2021/04/17 00:53:59;;;;;;;;;;;;;;;6.14;72.33;99884.78;5074513;28;19929;-70
2021/04/17 00:56:31;;;;;;;;;;;;;;;6.10;72.11;99893.97;5074821;28;19924;-70
2021/04/17 00:59:03;;;;;;;;;;;;;;;6.09;71.97;99892.28;5075197;28;20031;-70
2021/04/17 01:01:34;;;;;;;;;;;;;;;6.08;72.16;99893.09;5074960;28;19924;-70
2021/04/17 01:04:05;;;;;;;;;;;;;;;6.07;72.42;99896.44;5074810;28;20370;-71
2021/04/17 01:06:39;;;;;;;;;;;;;;;6.04;72.53;99896.41;5074727;28;19924;-70
2021/04/17 01:09:10;;;;;;;;;;;;;;;6.02;72.27;99903.13;5074901;28;19924;-70
2021/04/17 01:11:45;;;;;;;;;;;;;;;5.98;72.41;99891.19;5056633;28;19978;-70
2021/04/17 01:14:15;;;;;;;;;;;;;;;5.94;72.57;99894.50;5074913;28;19974;-70
2021/04/17 01:16:47;;;;;;;;;;;;;;;5.93;72.26;99895.28;5074594;28;19925;-70
2021/04/17 01:19:20;;;;;;;;;;;;;;;5.94;72.65;99899.56;5075246;28;20015;-70
2021/04/17 01:21:48;;;;;;;;;;;;;;;5.95;72.92;99891.16;5074232;28;19924;-70
2021/04/17 01:24:17;;;;;;;;;;;;;;;5.93;72.87;99883.50;5074402;28;20358;-70
2021/04/17 01:26:46;;;;;;;;;;;;;;;5.92;72.83;99886.00;5074138;28;19925;-70
2021/04/17 01:29:14;;;;;;;;;;;;;;;5.93;72.75;99887.69;5074402;28;19924;-70
2021/04/17 01:31:43;;;;;;;;;;;;;;;5.93;72.82;99877.56;5074778;28;19924;-70
2021/04/17 01:34:17;;;;;;;;;;;;;;;5.92;72.59;99870.81;5074366;28;19924;-71
2021/04/17 01:36:49;;;;;;;;;;;;;;;5.90;72.93;99859.81;5074896;28;19930;-70
2021/04/17 01:39:19;;;;;;;;;;;;;;;5.90;72.97;99872.47;5074302;28;20374;-70
2021/04/17 01:41:49;;;;;;;;;;;;;;;5.87;72.65;99863.13;5074621;28;20023;-70
2021/04/17 01:44:19;;;;;;;;;;;;;;;5.86;73.39;99875.72;5074310;28;19935;-70
2021/04/17 01:46:51;;;;;;;;;;;;;;;5.85;72.91;99863.91;5074846;28;19993;-70
2021/04/17 01:49:20;;;;;;;;;;;;;;;5.84;72.95;99868.13;5074150;28;20381;-70
2021/04/17 01:51:49;;;;;;;;;;;;;;;5.84;72.86;99869.75;5074838;28;19963;-70
2021/04/17 01:54:18;;;;;;;;;;;;;;;5.84;72.95;99873.19;5073628;28;19925;-70
2021/04/17 01:56:47;;;;;;;;;;;;;;;5.85;72.96;99867.31;5074086;28;19994;-70
2021/04/17 01:59:18;;;;;;;;;;;;;;;5.86;72.69;99860.53;5074658;28;19924;-70
2021/04/17 02:01:46;;;;;;;;;;;;;;;5.86;72.94;99863.06;5074084;28;19924;-71
2021/04/17 02:04:17;;;;;;;;;;;;;;;5.86;72.58;99865.59;5073759;28;20424;-70
2021/04/17 02:06:45;;;;;;;;;;;;;;;5.85;72.65;99864.78;5075411;28;20447;-70
2021/04/17 02:09:13;;;;;;;;;;;;;;;5.82;72.89;99879.00;5078431;28;19938;-70
2021/04/17 02:11:44;;;;;;;;;;;;;;;5.78;72.74;99873.00;5060741;28;19931;-70
2021/04/17 02:14:12;;;;;;;;;;;;;;;5.77;72.97;99875.50;5077913;28;19956;-70
2021/04/17 02:16:48;;;;;;;;;;;;;;;5.75;72.53;99867.03;5078637;28;20412;-70
2021/04/17 02:19:19;;;;;;;;;;;;;;;5.72;73.00;99867.81;5078608;28;20281;-70
2021/04/17 02:21:48;;;;;;;;;;;;;;;5.66;72.80;99861.78;5077901;28;19932;-70
2021/04/17 02:24:17;;;;;;;;;;;;;;;5.61;72.81;99854.09;5078013;28;19925;-70
2021/04/17 02:26:48;;;;;;;;;;;;;;;5.57;72.98;99856.50;5078345;28;20010;-71
2021/04/17 02:29:18;;;;;;;;;;;;;;;5.51;72.98;99851.31;5078076;28;20366;-70
2021/04/17 02:31:47;;;;;;;;;;;;;;;5.37;73.34;99849.31;5078069;28;19924;-70
2021/04/17 02:34:15;;;;;;;;;;;;;;;5.33;73.34;99852.59;5077683;28;19974;-70
2021/04/17 02:36:46;;;;;;;;;;;;;;;5.28;73.01;99849.13;5077706;28;19924;-70
2021/04/17 02:39:16;;;;;;;;;;;;;;;5.25;73.35;99854.13;5077988;28;19924;-70
2021/04/17 02:41:48;;;;;;;;;;;;;;;5.17;73.72;99850.56;5078226;28;19931;-70
2021/04/17 02:44:19;;;;;;;;;;;;;;;5.15;73.62;99847.13;5078033;28;19925;-70
2021/04/17 02:46:48;;;;;;;;;;;;;;;5.14;73.98;99847.94;5077872;28;19924;-70
2021/04/17 02:49:16;;;;;;;;;;;;;;;5.08;73.70;99842.75;5077420;28;19931;-70
2021/04/17 02:51:44;;;;;;;;;;;;;;;5.00;74.06;99836.66;5077601;28;19924;-70
2021/04/17 02:54:15;;;;;;;;;;;;;;;4.93;73.71;99834.78;5076336;28;19924;-70
2021/04/17 02:56:46;;;;;;;;;;;;;;;4.85;73.56;99836.28;5077602;28;19951;-71
2021/04/17 02:59:32;;;;;;;;;;;;;;;4.80;74.41;99837.00;4663258;22;22216;-66
2021/04/17 03:02:14;;;;;;;;;;;;;;;4.72;74.01;99834.28;5133473;27;19961;-67
2021/04/17 03:04:55;;;;;;;;;;;;;;;4.71;74.55;99833.41;5133397;27;19915;-66
2021/04/17 03:07:39;;;;;;;;;;;;;;;4.74;75.04;99822.53;5133583;27;19965;-66
2021/04/17 03:10:21;;;;;;;;;;;;;;;4.74;75.03;99827.59;5133527;27;19961;-66
2021/04/17 03:13:05;;;;;;;;;;;;;;;4.73;75.40;99830.91;5132954;27;19938;-66
2021/04/17 03:15:47;;;;;;;;;;;;;;;4.74;75.30;99832.63;5133538;27;19912;-66
2021/04/17 03:18:27;;;;;;;;;;;;;;;4.72;74.97;99832.63;5006008;27;1611021;-67
2021/04/17 03:21:11;;;;;;;;;;;;;;;4.72;75.00;99839.34;5133441;27;19980;-66
2021/04/17 03:23:53;;;;;;;;;;;;;;;4.71;74.95;99832.56;5132643;27;19961;-66
2021/04/17 03:26:34;;;;;;;;;;;;;;;4.63;75.28;99829.00;5132604;27;19915;-66
2021/04/17 03:29:16;;;;;;;;;;;;;;;4.58;75.25;99838.13;5133508;27;19911;-66
2021/04/17 03:31:57;;;;;;;;;;;;;;;4.52;75.10;99836.28;5112865;27;19916;-66
2021/04/17 03:34:39;;;;;;;;;;;;;;;4.49;75.01;99837.88;5133500;27;19919;-66
2021/04/17 03:37:23;;;;;;;;;;;;;;;4.46;75.57;99840.34;5132859;27;19912;-66
2021/04/17 03:40:09;;;;;;;;;;;;;;;4.48;75.55;99836.19;5133513;27;19912;-67
2021/04/17 03:42:54;;;;;;;;;;;;;;;4.47;75.35;99834.47;5133495;27;20349;-66
2021/04/17 03:45:35;;;;;;;;;;;;;;;4.45;75.79;99833.56;5133517;27;19915;-66
2021/04/17 03:51:35;;;;;;;;;;;;;;;4.46;75.85;99832.75;4901462;28;19934;-64
2021/04/17 03:54:17;;;;;;;;;;;;;;;4.43;75.89;99837.72;5133491;27;19911;-66
2021/04/17 03:57:01;;;;;;;;;;;;;;;4.39;76.09;99834.25;5133548;27;19937;-66
2021/04/17 03:59:43;;;;;;;;;;;;;;;4.42;75.43;99843.59;5133518;27;19912;-66
2021/04/17 04:02:27;;;;;;;;;;;;;;;4.45;76.08;99839.47;5133499;27;19912;-66
2021/04/17 04:05:10;;;;;;;;;;;;;;;4.51;75.86;99848.91;5133423;27;19916;-66
2021/04/17 04:07:58;;;;;;;;;;;;;;;4.56;76.03;99842.25;5133454;27;20342;-66
2021/04/17 04:10:42;;;;;;;;;;;;;;;4.61;76.32;99843.25;5132737;27;19915;-66
2021/04/17 04:13:30;;;;;;;;;;;;;;;4.62;76.42;99835.72;5133273;27;20266;-66
2021/04/17 04:16:15;;;;;;;;;;;;;;;4.66;76.41;99839.16;5133500;27;19915;-66
2021/04/17 04:18:59;;;;;;;;;;;;;;;4.68;75.85;99837.53;5133406;27;19960;-66
2021/04/17 04:21:41;;;;;;;;;;;;;;;4.79;76.48;99841.19;5132466;27;19961;-66
2021/04/17 04:24:25;;;;;;;;;;;;;;;4.97;76.33;99841.63;5132419;27;19916;-66
2021/04/17 04:27:07;;;;;;;;;;;;;;;5.08;76.12;99837.69;5133470;27;20306;-66
2021/04/17 04:29:48;;;;;;;;;;;;;;;5.16;76.24;99831.13;5133482;27;19912;-66
2021/04/17 04:32:35;;;;;;;;;;;;;;;5.17;76.31;99840.44;5133469;27;19912;-66
2021/04/17 04:35:16;;;;;;;;;;;;;;;5.19;75.80;99831.19;5112933;27;19916;-66
2021/04/17 04:38:00;;;;;;;;;;;;;;;5.21;75.86;99834.63;5133458;27;19912;-66
2021/04/17 04:40:45;;;;;;;;;;;;;;;5.25;75.78;99838.94;5112946;27;20369;-67
2021/04/17 04:43:26;;;;;;;;;;;;;;;5.33;75.63;99837.41;5112279;27;19913;-65
2021/04/17 04:46:08;;;;;;;;;;;;;;;5.38;75.89;99837.53;5132531;27;19912;-66
2021/04/17 04:48:52;;;;;;;;;;;;;;;5.40;75.42;99831.69;5133504;27;19912;-65
2021/04/17 04:51:48;;;;;;;;;;;;;;;5.46;75.45;99835.16;5151491;27;19915;-67
2021/04/17 04:54:17;;;;;;;;;;;;;;;5.46;75.45;99833.50;5151477;27;20321;-67
2021/04/17 04:56:48;;;;;;;;;;;;;;;5.47;75.05;99834.34;5151855;27;20442;-66
2021/04/17 04:59:16;;;;;;;;;;;;;;;5.48;75.65;99836.03;5151633;27;19994;-66
2021/04/17 05:01:44;;;;;;;;;;;;;;;5.49;75.51;99837.78;5151344;27;19927;-67
2021/04/17 05:04:12;;;;;;;;;;;;;;;5.52;75.44;99832.78;5150857;27;19924;-67
2021/04/17 05:06:43;;;;;;;;;;;;;;;5.60;75.20;99833.78;5151002;27;20360;-67
2021/04/17 05:09:18;;;;;;;;;;;;;;;5.69;75.75;99831.44;5151319;27;19931;-67
2021/04/17 05:11:46;;;;;;;;;;;;;;;5.79;75.54;99838.41;5151608;27;19927;-67
2021/04/17 05:14:14;;;;;;;;;;;;;;;5.86;75.63;99835.22;5151334;27;19924;-67
2021/04/17 05:16:45;;;;;;;;;;;;;;;5.94;75.55;99838.75;5150685;27;20302;-67
2021/04/17 05:19:17;;;;;;;;;;;;;;;5.98;75.39;99831.25;5151391;27;20018;-66
2021/04/17 05:21:48;;;;;;;;;;;;;;;6.01;75.31;99840.59;5150857;27;20361;-67
2021/04/17 05:24:20;;;;;;;;;;;;;;;6.00;75.13;99839.72;5150982;27;19930;-67
2021/04/17 05:26:54;;;;;;;;;;;;;;;6.06;74.70;99839.00;5151016;27;19923;-67
2021/04/17 05:29:22;;;;;;;;;;;;;;;6.09;74.63;99844.16;5125138;27;19928;-67
2021/04/17 05:32:05;;;;;;;;;;;;;;;6.17;74.74;99842.59;5133219;27;19916;-66
2021/04/17 05:34:47;;;;;;;;;;;;;;;6.24;74.63;99843.59;5133385;27;19912;-67
2021/04/17 05:37:31;;;;;;;;;;;;;;;6.28;74.26;99841.13;5133311;27;19916;-66
2021/04/17 05:40:16;;;;;;;;;;;;;;;6.32;74.16;99842.91;5112949;27;19912;-66
2021/04/17 05:43:07;;;;;;;;;;;;;;;6.38;74.04;99843.00;5133462;27;19965;-66
2021/04/17 05:45:49;;;;;;;;;;;;;;;6.42;73.62;99843.91;5133510;27;19912;-66
2021/04/17 05:48:33;;;;;;;;;;;;;;;6.48;73.40;99844.88;5133235;27;20226;-66
2021/04/17 05:51:18;;;;;;;;;;;;;;;6.55;73.30;99840.78;5133253;27;19961;-66
2021/04/17 05:54:03;;;;;;;;;;;;;;;6.57;72.92;99840.00;5133475;27;19964;-66
2021/04/17 05:56:47;;;;;;;;;;;;;;;6.56;72.96;99845.88;5133492;27;19973;-67
2021/04/17 05:59:28;;;;;;;;;;;;;;;6.56;72.32;99845.88;5132885;27;20409;-66
2021/04/17 06:02:10;;;;;;;;;;;;;;;6.55;72.51;99833.19;5132548;27;19919;-66
2021/04/17 06:04:53;;;;;;;;;;;;;;;6.58;72.26;99841.69;5132702;27;19912;-66
2021/04/17 06:07:37;;;;;;;;;;;;;;;6.61;72.22;99835.81;5133497;27;19957;-66
2021/04/17 06:10:19;;;;;;;;;;;;;;;6.69;72.03;99845.25;5133478;27;20310;-66
2021/04/17 06:13:03;;;;;;;;;;;;;;;6.75;71.95;99837.75;5133374;27;19912;-67
2021/04/17 06:15:45;;;;;;;;;;;;;;;6.85;71.59;99840.44;5133456;27;19961;-66
2021/04/17 06:18:26;;;;;;;;;;;;;;;6.92;71.58;99837.19;5132709;27;19941;-66
2021/04/17 06:21:08;;;;;;;;;;;;;;;6.97;71.34;99838.09;5133313;27;20299;-66
2021/04/17 06:23:55;;;;;;;;;;;;;;;6.99;70.92;99833.91;5112863;27;19912;-67
2021/04/17 06:26:43;;;;;;;;;;;;;;;6.95;70.95;99838.09;5133337;27;19965;-66
2021/04/17 06:29:31;;;;;;;;;;;;;;;7.05;70.42;99839.94;5133366;27;20429;-67
2021/04/17 06:32:15;;;;;;;;;;;;;;;7.15;70.37;99841.78;5133469;27;19937;-66
2021/04/17 06:34:57;;;;;;;;;;;;;;;7.15;70.25;99835.88;5133462;27;19916;-66
2021/04/17 06:37:45;;;;;;;;;;;;;;;7.15;69.85;99840.94;5133404;27;19956;-66
2021/04/17 06:40:32;;;;;;;;;;;;;;;7.21;69.77;99841.03;5133491;27;19957;-66
2021/04/17 06:43:15;;;;;;;;;;;;;;;7.23;69.41;99844.44;5112925;27;20327;-66
2021/04/17 06:45:58;;;;;;;;;;;;;;;7.24;69.15;99846.16;5133437;27;19937;-65
2021/04/17 06:48:41;;;;;;;;;;;;;;;7.23;68.47;99849.50;5133496;27;19912;-65
2021/04/17 06:51:26;;;;;;;;;;;;;;;7.32;68.78;99844.56;5133476;27;19911;-64
2021/04/17 06:54:12;;;;;;;;;;;;;;;7.50;68.94;99849.94;5133458;27;19924;-66
2021/04/17 06:56:58;;;;;;;;;;;;;;;7.55;68.32;99853.38;5132551;27;19960;-66
2021/04/17 06:59:44;;;;;;;;;;;;;;;7.55;68.41;99853.38;5133260;27;19957;-65
2021/04/17 07:02:28;;;;;;;;;;;;;;;7.62;67.85;99845.03;5112895;27;19912;-66
2021/04/17 07:05:10;;;;;;;;;;;;;;;7.77;68.20;99852.00;5132628;27;20351;-65
2021/04/17 07:07:54;;;;;;;;;;;;;;;7.84;67.89;99864.81;5111934;27;19913;-65
2021/04/17 07:10:35;;;;;;;;;;;;;;;7.82;67.23;99856.28;5133417;27;19911;-65
2021/04/17 07:13:20;;;;;;;;;;;;;;;7.85;67.72;99856.31;5133408;27;19969;-65
2021/04/17 07:16:09;;;;;;;;;;;;;;;7.94;67.63;99853.91;5133466;27;19912;-65
2021/04/17 07:18:52;;;;;;;;;;;;;;;7.90;66.93;99857.25;5133382;27;19965;-65
2021/04/17 07:21:36;;;;;;;;;;;;;;;7.91;67.00;99853.03;5133378;27;20342;-65
2021/04/17 07:24:25;;;;;;;;;;;;;;;7.81;66.82;99846.97;5133467;27;19956;-64
2021/04/17 07:27:09;;;;;;;;;;;;;;;7.84;66.36;99857.19;5133471;27;19965;-65
2021/04/17 07:29:51;;;;;;;;;;;;;;;7.97;66.83;99843.78;5112048;27;19912;-65
2021/04/17 07:32:32;;;;;;;;;;;;;;;8.04;66.70;99850.63;5132376;27;19941;-65
2021/04/17 07:35:15;;;;;;;;;;;;;;;8.17;66.66;99845.69;5133433;27;19912;-65
2021/04/17 07:38:08;;;;;;;;;;;;;;;8.27;66.42;99852.63;5133460;27;20356;-65
2021/04/17 07:41:00;;;;;;;;;;;;;;;8.38;65.70;99845.97;5131471;27;1801955;-65
2021/04/17 07:43:45;;;;;;;;;;;;;;;8.55;65.99;99844.44;5133397;27;19915;-66
2021/04/17 07:46:31;;;;;;;;;;;;;;;8.76;65.92;99839.56;5112105;27;19912;-65
2021/04/17 07:49:12;;;;;;;;;;;;;;;8.71;65.01;99846.28;4990892;27;1578572;-65
2021/04/17 07:51:58;;;;;;;;;;;;;;;8.61;64.10;99835.19;5133437;27;19911;-66
2021/04/17 07:55:03;;;;;;;;;;;;;;;8.66;63.55;99840.34;5132679;27;19965;-65
2021/04/17 07:57:44;;;;;;;;;;;;;;;8.62;63.28;99836.03;5132983;27;19984;-65
2021/04/17 08:00:27;;;;;;;;;;;;;;;8.63;62.55;99837.75;5132406;27;20353;-65
2021/04/17 08:03:12;;;;;;;;;;;;;;;8.85;63.49;99834.56;5132595;27;19957;-65
2021/04/17 08:05:42;;;;;;;;;;;;;;;8.94;62.70;99834.66;5132736;27;19924;-65
2021/04/17 08:08:14;;;;;;;;;;;;;;;9.01;62.78;99843.19;5132438;27;19927;-65
2021/04/17 08:10:46;;;;;;;;;;;;;;;9.18;62.54;99832.28;5132370;28;19928;-65
2021/04/17 08:13:17;;;;;;;;;;;;;;;9.30;62.02;99842.56;5132378;27;19971;-65
2021/04/17 08:15:49;;;;;;;;;;;;;;;9.21;61.54;99834.84;5132486;28;19931;-65
2021/04/17 08:18:22;;;;;;;;;;;;;;;9.14;60.81;99837.34;5132286;27;19924;-65
2021/04/17 08:20:53;;;;;;;;;;;;;;;9.29;61.17;99842.53;5132687;28;20407;-65
2021/04/17 08:23:25;;;;;;;;;;;;;;;9.35;61.12;99833.25;5132314;27;19930;-64
2021/04/17 08:25:54;;;;;;;;;;;;;;;9.40;60.56;99836.69;5132060;27;19962;-66
2021/04/17 08:28:27;;;;;;;;;;;;;;;9.44;60.28;99838.41;5131968;28;19923;-65
2021/04/17 08:31:08;;;;;;;;;;;;;;;9.75;60.56;99834.31;5132285;27;19923;-65
2021/04/17 08:33:40;;;;;;;;;;;;;;;9.93;60.34;99833.56;5132196;27;19930;-65
2021/04/17 08:36:08;;;;;;;;;;;;;;;10.07;59.74;99832.78;5132056;27;19945;-66
2021/04/17 08:38:39;;;;;;;;;;;;;;;10.05;59.15;99829.34;5132039;27;19949;-65
2021/04/17 08:41:11;;;;;;;;;;;;;;;9.92;58.99;99826.75;5131899;27;19928;-66
2021/04/17 08:43:39;;;;;;;;;;;;;;;9.94;58.31;99830.16;5131939;27;19930;-65
2021/04/17 08:46:13;;;;;;;;;;;;;;;9.95;58.24;99826.78;5131907;28;19924;-66
2021/04/17 08:49:00;;;;;;;;;;;;;;;9.91;58.25;99825.06;5130348;28;20023;-66
2021/04/17 08:51:35;;;;;;;;;;;;;;;9.83;58.80;99816.53;5131683;27;20287;-65
2021/04/17 08:54:17;;;;;;;;;;;;;;;10.00;58.25;99820.00;5131757;28;20010;-66
2021/04/17 08:56:50;;;;;;;;;;;;;;;9.91;57.88;99825.06;5131748;27;19924;-65
2021/04/17 08:59:22;;;;;;;;;;;;;;;9.91;57.64;99815.69;5131672;27;19924;-66
2021/04/17 09:01:54;;;;;;;;;;;;;;;9.89;57.55;99817.41;5130967;27;19924;-65
2021/04/17 09:04:26;;;;;;;;;;;;;;;9.83;56.84;99813.97;5131526;28;19924;-66
2021/04/17 09:06:59;;;;;;;;;;;;;;;9.83;56.87;99817.38;5131197;28;20312;-66
2021/04/17 09:09:32;;;;;;;;;;;;;;;9.88;57.69;99807.19;5131429;28;19924;-66
2021/04/17 09:12:14;;;;;;;;;;;;;;;10.01;58.23;99811.47;5131437;28;19986;-66
2021/04/17 09:14:49;;;;;;;;;;;;;;;10.16;57.92;99820.91;5116867;28;19924;-66
2021/04/17 09:17:31;;;;;;;;;;;;;;;9.97;57.12;99815.72;5117474;28;19924;-66
2021/04/17 09:20:03;;;;;;;;;;;;;;;9.92;57.50;99811.44;5117907;28;19923;-66
2021/04/17 09:22:42;;;;;;;;;;;;;;;10.04;57.22;99816.59;5117074;28;19930;-66
2021/04/17 09:25:12;;;;;;;;;;;;;;;10.08;57.00;99818.31;5116981;28;19931;-66
2021/04/17 09:28:00;;;;;;;;;;;;;;;10.16;56.69;99816.69;5117391;28;19934;-66
2021/04/17 09:30:28;;;;;;;;;;;;;;;10.25;56.65;99813.28;5117163;28;20280;-66
2021/04/17 09:33:00;;;;;;;;;;;;;;;10.31;56.99;99811.63;5117266;28;19924;-66
2021/04/17 09:35:32;;;;;;;;;;;;;;;10.37;55.91;99809.06;5117313;28;19924;-65
2021/04/17 09:38:08;;;;;;;;;;;;;;;10.34;56.15;99809.06;5117225;28;19925;-66
2021/04/17 09:40:42;;;;;;;;;;;;;;;10.28;55.73;99798.84;5117219;28;19924;-66
2021/04/17 09:43:21;;;;;;;;;;;;;;;10.35;56.05;99803.13;5117028;28;20292;-66
2021/04/17 09:45:52;;;;;;;;;;;;;;;10.39;56.02;99804.81;5116668;28;19972;-64
2021/04/17 09:48:24;;;;;;;;;;;;;;;10.63;56.48;99807.41;5117003;28;19951;-66
2021/04/17 09:50:55;;;;;;;;;;;;;;;10.78;56.57;99798.91;5116616;28;19931;-66
2021/04/17 09:53:29;;;;;;;;;;;;;;;10.77;55.68;99803.16;5116702;28;19977;-66
2021/04/17 09:56:00;;;;;;;;;;;;;;;10.74;55.42;99792.13;5117122;28;20025;-65
2021/04/17 09:58:30;;;;;;;;;;;;;;;10.73;55.39;99791.25;5116843;28;19970;-66
2021/04/17 10:01:10;;;;;;;;;;;;;;;10.72;54.89;99789.53;5116365;28;19932;-66
2021/04/17 10:03:59;;;;;;;;;;;;;;;10.89;54.88;99788.72;5116216;28;19924;-66
2021/04/17 10:06:29;;;;;;;;;;;;;;;10.97;54.90;99789.53;5116905;28;19932;-65
2021/04/17 10:09:16;;;;;;;;;;;;;;;11.05;54.63;99783.59;5116950;28;19953;-65
2021/04/17 10:11:45;;;;;;;;;;;;;;;11.23;54.45;99782.69;5116754;28;19930;-66
2021/04/17 10:14:17;;;;;;;;;;;;;;;11.37;53.97;99778.44;5116282;28;19924;-65
2021/04/17 10:16:49;;;;;;;;;;;;;;;11.40;54.02;99778.41;5116123;28;19992;-65
2021/04/17 10:19:20;;;;;;;;;;;;;;;11.34;53.53;99773.31;5116498;28;19980;-65
2021/04/17 10:21:55;;;;;;;;;;;;;;;11.32;53.31;99773.34;5098054;28;19924;-66
2021/04/17 10:24:27;;;;;;;;;;;;;;;11.44;53.30;99772.44;5115389;28;20018;-65
2021/04/17 10:27:03;;;;;;;;;;;;;;;11.73;53.66;99770.69;5116137;28;19924;-66
2021/04/17 10:29:36;;;;;;;;;;;;;;;11.62;52.60;99772.38;5115947;28;19928;-65
2021/04/17 10:32:05;;;;;;;;;;;;;;;11.59;52.37;99767.25;5098081;28;19924;-65
2021/04/17 10:34:34;;;;;;;;;;;;;;;11.51;52.09;99763.06;5115736;28;19924;-65
2021/04/17 10:37:07;;;;;;;;;;;;;;;11.77;52.65;99766.38;5115655;28;19949;-65
2021/04/17 10:39:38;;;;;;;;;;;;;;;11.91;52.14;99767.19;5115829;28;20022;-66
2021/04/17 10:42:09;;;;;;;;;;;;;;;12.07;51.88;99759.41;5115757;28;19924;-66
2021/04/17 10:44:51;;;;;;;;;;;;;;;12.23;51.33;99760.19;5115969;28;19923;-66
2021/04/17 10:47:23;;;;;;;;;;;;;;;12.47;51.63;99751.50;5115943;28;19924;-66
2021/04/17 10:49:57;;;;;;;;;;;;;;;12.59;51.34;99752.25;5115802;28;19934;-65
2021/04/17 10:52:28;;;;;;;;;;;;;;;12.42;50.72;99748.13;5115772;28;19924;-65
2021/04/17 10:55:01;;;;;;;;;;;;;;;12.44;50.81;99747.25;5115724;28;19935;-64
2021/04/17 10:57:45;;;;;;;;;;;;;;;12.91;51.34;99746.00;5115743;28;19924;-65
2021/04/17 11:00:27;;;;;;;;;;;;;;;13.09;50.42;99746.72;5115931;28;19928;-66
2021/04/17 11:02:58;;;;;;;;;;;;;;;12.60;49.59;99753.94;5110761;28;19923;-65
2021/04/17 11:08:13;;;;;;;;;;;;;;;12.71;48.63;99753.88;5093255;28;19959;-66
2021/04/17 11:10:44;;;;;;;;;;;;;;;13.03;49.49;99740.78;5092869;28;19935;-66
2021/04/17 11:13:28;;;;;;;;;;;;;;;12.97;48.90;99741.69;5092805;28;19955;-66
2021/04/17 11:16:01;;;;;;;;;;;;;;;12.62;48.86;99747.09;5076073;28;19951;-65
2021/04/17 11:18:32;;;;;;;;;;;;;;;12.41;48.77;99741.28;5092721;28;20019;-66
2021/04/17 11:21:05;;;;;;;;;;;;;;;12.22;49.25;99749.94;5093131;28;20461;-65
2021/04/17 11:23:53;;;;;;;;;;;;;;;12.15;49.17;99749.13;5092476;28;19924;-66
2021/04/17 11:26:21;;;;;;;;;;;;;;;12.03;48.66;99749.22;5092663;28;19981;-66
2021/04/17 11:28:50;;;;;;;;;;;;;;;12.12;49.05;99753.44;5092527;28;19924;-65
2021/04/17 11:31:20;;;;;;;;;;;;;;;12.15;48.97;99749.13;5092217;28;19924;-66
2021/04/17 11:33:49;;;;;;;;;;;;;;;12.52;49.54;99745.50;5092150;28;19924;-66
2021/04/17 11:36:19;;;;;;;;;;;;;;;12.79;49.12;99739.25;5092164;28;19924;-66
2021/04/17 11:38:47;;;;;;;;;;;;;;;13.06;48.92;99749.31;5092537;28;19977;-66
2021/04/17 11:41:15;;;;;;;;;;;;;;;13.05;48.51;99742.44;5092218;28;20011;-66
2021/04/17 11:43:43;;;;;;;;;;;;;;;13.31;48.47;99734.53;5092241;28;19970;-67
2021/04/17 11:46:11;;;;;;;;;;;;;;;13.73;48.96;99733.16;5108460;28;20372;-66
2021/04/17 11:48:41;;;;;;;;;;;;;;;14.28;49.50;99726.41;5114886;28;19923;-66
2021/04/17 11:51:09;;;;;;;;;;;;;;;14.18;46.97;99734.28;5114481;28;19931;-66
2021/04/17 11:53:38;;;;;;;;;;;;;;;13.90;46.05;99731.22;5114553;28;19963;-67
2021/04/17 11:56:07;;;;;;;;;;;;;;;13.50;45.71;99732.59;5114461;28;20018;-66
2021/04/17 11:58:35;;;;;;;;;;;;;;;13.17;46.12;99732.09;5114380;28;19924;-66
2021/04/17 12:01:04;;;;;;;;;;;;;;;13.22;45.89;99737.19;5114304;28;19924;-66
2021/04/17 12:03:32;;;;;;;;;;;;;;;13.36;45.78;99738.72;5114188;28;19971;-66
2021/04/17 12:06:01;;;;;;;;;;;;;;;13.73;46.42;99730.59;5096337;28;20372;-66
2021/04/17 12:08:29;;;;;;;;;;;;;;;14.17;47.00;99730.00;5114288;28;19931;-66
2021/04/17 12:10:57;;;;;;;;;;;;;;;14.13;46.18;99729.22;5114384;28;19928;-66
2021/04/17 12:13:24;;;;;;;;;;;;;;;14.33;46.28;99727.22;5114314;28;19923;-66
2021/04/17 12:15:52;;;;;;;;;;;;;;;14.60;45.47;99726.78;5114319;28;19924;-67
2021/04/17 12:18:22;;;;;;;;;;;;;;;14.64;45.24;99728.44;5114329;28;20380;-67
2021/04/17 12:20:50;;;;;;;;;;;;;;;14.39;44.24;99723.72;5114173;28;19923;-66
2021/04/17 12:23:18;;;;;;;;;;;;;;;14.19;43.71;99721.41;5114187;28;20373;-66
2021/04/17 12:25:48;;;;;;;;;;;;;;;13.89;43.59;99719.28;5114325;28;19924;-66
2021/04/17 12:28:16;;;;;;;;;;;;;;;13.67;43.86;99723.84;5114111;28;19924;-66
2021/04/17 12:30:43;;;;;;;;;;;;;;;13.66;44.28;99721.28;5114196;28;20292;-66
2021/04/17 12:33:12;;;;;;;;;;;;;;;13.74;44.15;99724.59;5114033;28;19928;-66
2021/04/17 12:35:41;;;;;;;;;;;;;;;13.95;44.98;99717.47;5114149;28;20033;-66
2021/04/17 12:38:09;;;;;;;;;;;;;;;14.26;45.72;99715.31;5113888;28;19931;-66
2021/04/17 12:40:38;;;;;;;;;;;;;;;14.29;45.66;99710.13;5114274;28;19967;-66
2021/04/17 12:43:07;;;;;;;;;;;;;;;14.31;45.53;99711.00;5095880;28;19976;-66
2021/04/17 12:45:35;;;;;;;;;;;;;;;13.96;44.88;99710.63;5113915;28;19924;-66
2021/04/17 12:48:04;;;;;;;;;;;;;;;13.89;45.60;99711.59;5114736;28;20365;-66
2021/04/17 12:50:32;;;;;;;;;;;;;;;13.91;45.20;99703.00;5117882;28;19969;-66
2021/04/17 12:52:59;;;;;;;;;;;;;;;14.05;44.86;99700.22;5117798;28;20266;-66
2021/04/17 12:55:28;;;;;;;;;;;;;;;14.01;45.03;99703.72;5117554;28;19966;-66
2021/04/17 12:57:56;;;;;;;;;;;;;;;13.77;44.91;99698.94;5117678;28;19959;-66
2021/04/17 13:00:26;;;;;;;;;;;;;;;13.50;45.83;99700.13;5117753;28;20388;-66
2021/04/17 13:02:54;;;;;;;;;;;;;;;13.55;45.97;99702.63;5117331;28;19924;-66
2021/04/17 13:05:22;;;;;;;;;;;;;;;13.65;46.24;99705.06;5117582;28;19959;-66
2021/04/17 13:07:50;;;;;;;;;;;;;;;13.77;46.53;99693.78;5117509;28;20289;-66
2021/04/17 13:10:17;;;;;;;;;;;;;;;13.75;46.43;99698.94;5117331;28;19931;-67
2021/04/17 13:12:45;;;;;;;;;;;;;;;13.78;46.79;99696.31;5117224;28;19977;-66
2021/04/17 13:15:15;;;;;;;;;;;;;;;13.79;46.06;99697.19;5117461;28;20376;-66
2021/04/17 13:17:43;;;;;;;;;;;;;;;13.73;46.15;99687.84;5117417;28;19923;-66
2021/04/17 13:20:12;;;;;;;;;;;;;;;13.86;46.36;99699.66;5117353;28;19928;-66
2021/04/17 13:22:39;;;;;;;;;;;;;;;14.08;46.04;99684.78;5117041;28;19923;-66
2021/04/17 13:25:07;;;;;;;;;;;;;;;14.37;47.05;99682.63;5117238;28;19923;-66
2021/04/17 13:27:35;;;;;;;;;;;;;;;14.41;46.13;99689.44;5117782;28;19938;-66
2021/04/17 13:30:04;;;;;;;;;;;;;;;14.11;45.65;99682.16;5117091;28;19931;-66
2021/04/17 13:32:33;;;;;;;;;;;;;;;13.95;45.49;99683.25;5117086;28;19928;-66
2021/04/17 13:35:01;;;;;;;;;;;;;;;13.86;45.57;99680.84;5116996;28;19927;-66
2021/04/17 13:37:29;;;;;;;;;;;;;;;13.97;45.67;99681.50;5116991;28;19924;-66
2021/04/17 13:39:56;;;;;;;;;;;;;;;13.81;45.85;99685.19;5081701;28;19959;-66